createdAt,value
2024-02-21T00:00:18.421Z,1.73
2024-02-21T00:02:45.040Z,2.78
2024-02-21T00:05:11.757Z,2.00
2024-02-21T00:07:38.450Z,1.90
2024-02-21T00:10:05.457Z,1.70
2024-02-21T00:12:32.014Z,2.03
2024-02-21T00:14:58.616Z,2.58
2024-02-21T00:17:27.384Z,1.50
2024-02-21T00:19:54.228Z,2.72
2024-02-21T00:22:21.064Z,1.98
2024-02-21T00:24:47.754Z,1.98
2024-02-21T00:27:14.330Z,1.35
2024-02-21T00:29:40.997Z,1.90
2024-02-21T00:32:07.582Z,2.00
2024-02-21T00:34:34.797Z,2.75
2024-02-21T00:37:01.533Z,2.45
2024-02-21T00:39:28.085Z,2.78
2024-02-21T00:41:54.868Z,2.40
2024-02-21T00:44:21.526Z,2.60
2024-02-21T00:46:48.400Z,2.90
2024-02-21T00:49:15.147Z,2.92
2024-02-21T00:51:41.767Z,2.47
2024-02-21T00:54:08.569Z,2.65
2024-02-21T00:56:35.187Z,2.63
2024-02-21T00:59:01.934Z,3.00
2024-02-21T01:01:28.738Z,3.10
2024-02-21T01:03:55.525Z,2.58
2024-02-21T01:06:22.420Z,2.83
2024-02-21T01:08:49.276Z,3.63
2024-02-21T01:11:19.157Z,2.72
2024-02-21T01:13:45.962Z,3.00
2024-02-21T01:16:12.684Z,3.80
2024-02-21T01:18:40.864Z,3.65
2024-02-21T01:21:08.834Z,4.20
2024-02-21T01:23:36.852Z,3.45
2024-02-21T01:26:04.677Z,3.83
2024-02-21T01:28:31.949Z,4.20
2024-02-21T01:30:58.769Z,4.53
2024-02-21T01:33:25.435Z,4.32
2024-02-21T01:35:52.360Z,5.47
2024-02-21T01:38:19.208Z,4.10
2024-02-21T01:40:46.075Z,5.40
2024-02-21T01:43:18.976Z,3.80
2024-02-21T01:45:49.868Z,3.72
2024-02-21T01:48:18.577Z,4.20
2024-02-21T01:50:46.900Z,4.22
2024-02-21T01:53:21.366Z,4.25
2024-02-21T01:55:49.124Z,4.60
2024-02-21T01:58:16.889Z,4.22
2024-02-21T02:00:44.860Z,4.00
2024-02-21T02:03:17.963Z,4.30
2024-02-21T02:05:49.106Z,3.40
2024-02-21T02:08:16.892Z,5.07
2024-02-21T02:10:44.796Z,3.72
2024-02-21T02:13:11.721Z,3.67
2024-02-21T02:15:44.497Z,2.90
2024-02-21T02:18:12.278Z,3.13
2024-02-21T02:20:39.483Z,3.47
2024-02-21T02:23:12.045Z,3.58
2024-02-21T02:25:39.975Z,3.00
2024-02-21T02:28:10.126Z,4.20
2024-02-21T02:30:37.471Z,3.70
2024-02-21T02:33:05.066Z,3.58
2024-02-21T02:35:32.346Z,3.53
2024-02-21T02:37:59.633Z,3.83
2024-02-21T02:40:26.407Z,3.38
2024-02-21T02:42:56.171Z,2.90
2024-02-21T02:45:27.808Z,3.67
2024-02-21T02:48:01.002Z,4.15
2024-02-21T02:50:28.683Z,2.70
2024-02-21T02:52:56.426Z,3.70
2024-02-21T02:55:23.564Z,3.42
2024-02-21T02:57:50.397Z,3.83
2024-02-21T03:00:17.311Z,3.25
2024-02-21T03:02:47.643Z,3.60
2024-02-21T03:05:19.928Z,4.13
2024-02-21T03:07:47.690Z,3.88
2024-02-21T03:10:15.132Z,3.47
2024-02-21T03:12:42.009Z,3.78
2024-02-21T03:15:09.136Z,3.22
2024-02-21T03:17:36.349Z,4.25
2024-02-21T03:20:07.188Z,5.15
2024-02-21T03:22:34.277Z,4.07
2024-02-21T03:25:01.345Z,3.30
2024-02-21T03:27:28.005Z,4.07
2024-02-21T03:29:54.733Z,3.55
2024-02-21T03:32:21.383Z,3.63
2024-02-21T03:34:48.050Z,3.40
2024-02-21T03:37:15.282Z,4.07
2024-02-21T03:39:42.487Z,3.28
2024-02-21T03:42:09.228Z,3.67
2024-02-21T03:44:36.005Z,4.18
2024-02-21T03:47:03.025Z,3.78
2024-02-21T03:49:30.093Z,4.50
2024-02-21T03:51:57.419Z,4.55
2024-02-21T03:54:24.274Z,4.75
2024-02-21T03:56:51.028Z,4.30
2024-02-21T03:59:17.700Z,5.13
2024-02-21T04:01:44.491Z,4.55
2024-02-21T04:04:12.067Z,4.50
2024-02-21T04:06:48.333Z,4.38
2024-02-21T04:09:14.982Z,4.00
2024-02-21T04:11:41.614Z,3.75
2024-02-21T04:14:08.421Z,4.55
2024-02-21T04:16:36.040Z,4.30
2024-02-21T04:19:03.368Z,4.30
2024-02-21T04:21:30.272Z,4.30
2024-02-21T04:23:56.978Z,4.30
2024-02-21T04:26:23.541Z,5.75
2024-02-21T04:28:50.166Z,5.72
2024-02-21T04:31:17.018Z,4.93
2024-02-21T04:33:43.655Z,4.80
2024-02-21T04:36:10.669Z,4.72
2024-02-21T04:38:37.297Z,5.40
2024-02-21T04:41:03.976Z,3.85
2024-02-21T04:43:30.687Z,4.72
2024-02-21T04:45:57.335Z,4.47
2024-02-21T04:48:23.914Z,4.13
2024-02-21T04:50:50.850Z,4.82
2024-02-21T04:53:17.422Z,4.03
2024-02-21T04:55:44.224Z,4.85
2024-02-21T04:58:10.882Z,3.63
2024-02-21T05:00:37.485Z,5.07
2024-02-21T05:03:04.431Z,3.03
2024-02-21T05:05:31.266Z,3.75
2024-02-21T05:07:58.060Z,4.32
2024-02-21T05:10:24.800Z,3.13
2024-02-21T05:12:51.419Z,3.80
2024-02-21T05:15:18.090Z,3.85
2024-02-21T05:17:45.627Z,5.78
2024-02-21T05:20:12.517Z,5.10
2024-02-21T05:22:39.300Z,4.40
2024-02-21T05:25:06.389Z,3.35
2024-02-21T05:27:33.005Z,3.53
2024-02-21T05:29:59.572Z,4.45
2024-02-21T05:32:27.464Z,3.30
2024-02-21T05:34:54.245Z,3.63
2024-02-21T05:37:20.996Z,3.83
2024-02-21T05:39:47.708Z,3.42
2024-02-21T05:42:14.306Z,2.92
2024-02-21T05:44:40.860Z,4.13
2024-02-21T05:47:11.252Z,4.25
2024-02-21T05:49:38.304Z,4.20
2024-02-21T05:52:07.133Z,3.95
2024-02-21T05:54:33.978Z,3.50
2024-02-21T05:57:00.770Z,4.13
2024-02-21T05:59:27.476Z,3.88
2024-02-21T06:01:59.229Z,4.60
2024-02-21T06:04:26.307Z,3.78
2024-02-21T06:06:53.045Z,3.88
2024-02-21T06:09:19.662Z,4.70
2024-02-21T06:11:47.660Z,3.95
2024-02-21T06:14:14.537Z,3.75
2024-02-21T06:16:41.362Z,4.60
2024-02-21T06:19:10.344Z,4.15
2024-02-21T06:21:38.129Z,4.13
2024-02-21T06:24:05.428Z,4.80
2024-02-21T06:26:32.043Z,5.25
2024-02-21T06:29:00.937Z,5.00
2024-02-21T06:31:29.110Z,3.95
2024-02-21T06:33:56.251Z,5.20
2024-02-21T06:36:23.248Z,4.65
2024-02-21T06:38:50.836Z,5.72
2024-02-21T06:41:19.945Z,4.68
2024-02-21T06:43:47.643Z,4.82
2024-02-21T06:46:25.811Z,4.75
2024-02-21T06:48:52.874Z,4.88
2024-02-21T06:51:19.694Z,5.55
2024-02-21T06:53:46.331Z,4.53
2024-02-21T06:56:13.076Z,5.55
2024-02-21T06:58:39.774Z,6.57
2024-02-21T07:01:06.637Z,6.40
2024-02-21T07:03:33.384Z,7.70
2024-02-21T07:06:00.300Z,7.72
2024-02-21T07:08:27.580Z,7.22
2024-02-21T07:10:54.417Z,7.55
2024-02-21T07:13:21.707Z,9.18
2024-02-21T07:15:49.613Z,7.63
2024-02-21T07:18:16.343Z,9.60
2024-02-21T07:20:42.972Z,9.25
2024-02-21T07:23:09.859Z,8.20
2024-02-21T07:28:04.109Z,6.25
2024-02-21T07:30:30.739Z,6.55
2024-02-21T07:32:57.384Z,6.25
2024-02-21T07:35:24.090Z,6.80
2024-02-21T07:37:50.744Z,5.50
2024-02-21T07:40:18.317Z,5.72
2024-02-21T07:42:48.686Z,5.43
2024-02-21T07:45:19.620Z,4.65
2024-02-21T07:47:46.580Z,5.00
2024-02-21T07:50:13.365Z,4.25
2024-02-21T07:52:40.137Z,4.95
2024-02-21T07:55:07.028Z,4.38
2024-02-21T07:57:33.664Z,3.60
2024-02-21T08:00:00.337Z,3.33
2024-02-21T08:02:27.017Z,4.00
2024-02-21T08:04:53.655Z,2.80
2024-02-21T08:07:20.346Z,3.17
2024-02-21T08:09:47.008Z,3.08
2024-02-21T08:12:13.791Z,3.60
2024-02-21T08:14:40.383Z,3.13
2024-02-21T08:17:07.324Z,2.72
2024-02-21T08:19:34.321Z,3.13
2024-02-21T08:22:01.518Z,3.28
2024-02-21T08:24:28.204Z,3.20
2024-02-21T08:26:54.829Z,3.95
2024-02-21T08:29:21.519Z,3.88
2024-02-21T08:31:48.153Z,3.63
2024-02-21T08:34:15.245Z,3.80
2024-02-21T08:36:42.198Z,3.53
2024-02-21T08:39:10.852Z,3.75
2024-02-21T08:41:48.391Z,4.47
2024-02-21T08:44:27.632Z,4.03
2024-02-21T08:46:54.667Z,5.05
2024-02-21T08:49:21.669Z,4.78
2024-02-21T08:51:48.737Z,6.43
2024-02-21T08:54:15.528Z,5.95
2024-02-21T08:56:42.455Z,5.70
2024-02-21T08:59:09.269Z,6.07
2024-02-21T09:01:36.557Z,7.38
2024-02-21T09:04:04.107Z,7.38
2024-02-21T09:06:31.408Z,8.05
2024-02-21T09:08:59.355Z,8.90
2024-02-21T09:11:26.357Z,7.00
2024-02-21T09:13:53.148Z,8.13
2024-02-21T09:16:19.910Z,7.13
2024-02-21T09:18:47.819Z,6.97
2024-02-21T09:21:14.487Z,7.95
2024-02-21T09:23:41.071Z,7.25
2024-02-21T09:26:07.855Z,7.07
2024-02-21T09:28:35.831Z,8.85
2024-02-21T09:31:03.154Z,8.77
2024-02-21T09:33:32.568Z,6.28
2024-02-21T09:36:00.867Z,8.55
2024-02-21T09:38:27.531Z,7.30
2024-02-21T09:41:05.503Z,7.15
2024-02-21T09:43:33.763Z,7.47
2024-02-21T09:46:01.780Z,7.82
2024-02-21T09:48:43.723Z,7.43
2024-02-21T09:51:11.665Z,7.22
2024-02-21T09:53:40.032Z,7.13
2024-02-21T09:56:11.385Z,7.85
2024-02-21T09:58:39.497Z,6.82
2024-02-21T10:01:17.021Z,8.13
2024-02-21T10:03:52.442Z,7.65
2024-02-21T10:06:19.250Z,7.72
2024-02-21T10:08:53.652Z,6.72
2024-02-21T10:11:25.638Z,6.68
2024-02-21T10:13:53.013Z,7.28
2024-02-21T10:16:19.767Z,7.53
2024-02-21T10:18:46.436Z,7.60
2024-02-21T10:21:13.162Z,7.10
2024-02-21T10:23:44.572Z,7.88
2024-02-21T10:26:11.545Z,8.23
2024-02-21T10:28:43.466Z,8.05
2024-02-21T10:31:11.276Z,9.05
2024-02-21T10:33:39.381Z,7.45
2024-02-21T10:36:10.906Z,7.80
2024-02-21T10:38:39.226Z,7.85
2024-02-21T10:41:06.938Z,7.65
2024-02-21T10:43:44.787Z,9.00
2024-02-21T10:46:12.083Z,8.18
2024-02-21T10:48:46.448Z,8.43
2024-02-21T10:51:15.999Z,7.35
2024-02-21T10:54:24.140Z,7.63
2024-02-21T10:56:52.630Z,8.23
2024-02-21T10:59:19.699Z,8.48
2024-02-21T11:01:46.602Z,7.63
2024-02-21T11:04:13.952Z,8.05
2024-02-21T11:06:42.755Z,7.95
2024-02-21T11:09:11.905Z,7.72
2024-02-21T11:11:41.464Z,7.40
2024-02-21T11:14:13.152Z,7.30
2024-02-21T11:16:41.706Z,7.95
2024-02-21T11:19:12.201Z,7.30
2024-02-21T11:21:39.562Z,7.70
2024-02-21T11:24:06.553Z,7.30
2024-02-21T11:26:33.697Z,7.40
2024-02-21T11:29:05.291Z,7.07
2024-02-21T11:31:42.764Z,7.40
2024-02-21T11:34:11.495Z,7.10
2024-02-21T11:36:51.229Z,7.32
2024-02-21T11:39:23.150Z,6.15
2024-02-21T11:42:06.567Z,6.85
2024-02-21T11:44:33.523Z,6.53
2024-02-21T11:47:00.359Z,6.82
2024-02-21T11:49:30.937Z,5.97
2024-02-21T11:52:06.983Z,6.63
2024-02-21T11:54:34.502Z,6.10
2024-02-21T11:57:02.382Z,5.80
2024-02-21T11:59:32.903Z,5.57
2024-02-21T12:02:01.082Z,5.65
2024-02-21T12:04:28.485Z,5.47
2024-02-21T12:06:55.665Z,6.07
2024-02-21T12:09:24.412Z,5.28
2024-02-21T12:12:06.125Z,5.38
2024-02-21T12:14:35.807Z,5.47
2024-02-21T12:17:07.345Z,4.63
2024-02-21T12:19:34.689Z,4.65
2024-02-21T12:22:02.555Z,5.05
2024-02-21T12:24:30.429Z,4.90
2024-02-21T12:26:58.383Z,4.60
2024-02-21T12:29:25.960Z,4.32
2024-02-21T12:31:53.553Z,4.78
2024-02-21T12:34:27.729Z,4.20
2024-02-21T12:37:02.662Z,4.72
2024-02-21T12:39:29.909Z,4.43
2024-02-21T12:41:59.245Z,4.70
2024-02-21T12:44:25.953Z,4.53
2024-02-21T12:46:55.202Z,3.90
2024-02-21T12:49:22.243Z,5.15
2024-02-21T12:51:49.432Z,4.35
2024-02-21T12:54:16.118Z,3.90
2024-02-21T12:56:42.878Z,4.72
2024-02-21T12:59:12.712Z,4.63
2024-02-21T13:01:39.747Z,3.83
2024-02-21T13:04:07.005Z,4.53
2024-02-21T13:06:34.074Z,4.43
2024-02-21T13:09:04.727Z,4.00
2024-02-21T13:11:33.054Z,3.45
2024-02-21T13:14:00.278Z,3.78
2024-02-21T13:16:30.349Z,4.03
2024-02-21T13:18:57.122Z,3.33
2024-02-21T13:21:23.943Z,3.53
2024-02-21T13:23:50.858Z,3.30
2024-02-21T13:26:17.726Z,4.25
2024-02-21T13:28:46.402Z,2.67
2024-02-21T13:31:13.500Z,3.20
2024-02-21T13:33:40.277Z,2.97
2024-02-21T13:36:07.290Z,2.83
2024-02-21T13:38:33.926Z,2.78
2024-02-21T13:41:01.854Z,3.08
2024-02-21T13:43:29.166Z,3.10
2024-02-21T13:46:00.468Z,3.28
2024-02-21T13:48:28.457Z,2.45
2024-02-21T13:50:55.399Z,2.88
2024-02-21T13:53:23.803Z,2.72
2024-02-21T13:55:51.304Z,3.20
2024-02-21T13:58:18.655Z,2.88
2024-02-21T14:00:46.019Z,3.15
2024-02-21T14:03:13.051Z,2.95
2024-02-21T14:05:43.418Z,2.70
2024-02-21T14:08:10.576Z,2.88
2024-02-21T14:10:38.660Z,2.83
2024-02-21T14:13:05.522Z,3.10
2024-02-21T14:15:32.532Z,3.22
2024-02-21T14:17:59.376Z,3.05
2024-02-21T14:20:26.150Z,2.35
2024-02-21T14:22:52.843Z,2.83
2024-02-21T14:25:19.714Z,2.83
2024-02-21T14:27:46.490Z,3.58
2024-02-21T14:30:13.588Z,3.15
2024-02-21T14:32:45.379Z,2.88
2024-02-21T14:35:12.395Z,3.25
2024-02-21T14:37:39.189Z,2.80
2024-02-21T14:40:06.872Z,2.85
2024-02-21T14:42:34.083Z,2.80
2024-02-21T14:45:05.198Z,3.00
2024-02-21T14:47:33.313Z,3.65
2024-02-21T14:50:00.548Z,3.10
2024-02-21T14:52:28.864Z,3.58
2024-02-21T14:54:55.873Z,3.25
2024-02-21T14:57:23.013Z,3.33
2024-02-21T14:59:51.262Z,3.45
2024-02-21T15:02:18.562Z,2.97
2024-02-21T15:04:45.442Z,3.40
2024-02-21T15:07:12.122Z,3.50
2024-02-21T15:09:38.706Z,2.70
2024-02-21T15:12:07.536Z,3.40
2024-02-21T15:14:35.527Z,3.85
2024-02-21T15:17:02.276Z,3.25
2024-02-21T15:19:29.183Z,3.75
2024-02-21T15:21:56.081Z,3.83
2024-02-21T15:24:22.761Z,3.28
2024-02-21T15:26:49.446Z,3.92
2024-02-21T15:29:16.178Z,3.78
2024-02-21T15:31:47.894Z,3.45
2024-02-21T15:34:18.951Z,2.95
2024-02-21T15:36:46.079Z,3.67
2024-02-21T15:39:13.471Z,3.72
2024-02-21T15:41:40.243Z,3.50
2024-02-21T15:44:07.209Z,3.88
2024-02-21T15:46:37.488Z,3.20
2024-02-21T15:49:04.945Z,3.90
2024-02-21T15:51:31.768Z,3.53
2024-02-21T15:53:59.743Z,3.33
2024-02-21T15:56:27.643Z,3.33
2024-02-21T15:58:56.492Z,3.90
2024-02-21T16:01:24.812Z,4.03
2024-02-21T16:03:53.009Z,4.00
2024-02-21T16:06:19.671Z,3.97
2024-02-21T16:08:48.245Z,3.30
2024-02-21T16:11:18.967Z,3.83
2024-02-21T16:13:49.462Z,3.53
2024-02-21T16:16:16.606Z,3.35
2024-02-21T16:18:43.728Z,3.80
2024-02-21T16:21:10.303Z,3.55
2024-02-21T16:23:36.943Z,4.05
2024-02-21T16:26:03.693Z,4.28
2024-02-21T16:28:30.846Z,3.97
2024-02-21T16:30:59.281Z,4.13
2024-02-21T16:33:26.489Z,4.70
2024-02-21T16:35:53.798Z,4.72
2024-02-21T16:38:20.855Z,4.47
2024-02-21T16:40:52.322Z,4.15
2024-02-21T16:43:19.049Z,4.15
2024-02-21T16:45:45.796Z,3.40
2024-02-21T16:48:12.569Z,3.78
2024-02-21T16:50:48.837Z,4.75
2024-02-21T16:53:21.932Z,4.10
2024-02-21T16:55:49.836Z,3.83
2024-02-21T16:58:17.134Z,4.00
2024-02-21T17:00:43.762Z,4.38
2024-02-21T17:03:10.447Z,4.30
2024-02-21T17:05:40.267Z,4.93
2024-02-21T17:08:10.607Z,4.07
2024-02-21T17:10:37.811Z,4.43
2024-02-21T17:13:06.300Z,3.72
2024-02-21T17:15:33.011Z,4.97
2024-02-21T17:18:00.190Z,4.10
2024-02-21T17:20:27.163Z,4.60
2024-02-21T17:22:53.960Z,4.55
2024-02-21T17:25:20.620Z,4.43
2024-02-21T17:27:47.296Z,3.88
2024-02-21T17:30:14.367Z,4.35
2024-02-21T17:32:41.080Z,4.00
2024-02-21T17:35:08.021Z,3.65
2024-02-21T17:37:35.203Z,3.55
2024-02-21T17:40:05.577Z,3.60
2024-02-21T17:42:32.295Z,3.53
2024-02-21T17:44:58.907Z,3.88
2024-02-21T17:47:25.496Z,2.88
2024-02-21T17:49:52.147Z,3.15
2024-02-21T17:52:18.748Z,4.47
2024-02-21T17:54:47.720Z,4.15
2024-02-21T17:57:15.142Z,3.92
2024-02-21T17:59:42.957Z,4.53
2024-02-21T18:02:10.467Z,4.13
2024-02-21T18:04:37.277Z,2.88
2024-02-21T18:07:04.443Z,3.58
2024-02-21T18:09:32.070Z,4.22
2024-02-21T18:11:59.848Z,3.65
2024-02-21T18:14:26.508Z,3.65
2024-02-21T18:16:53.286Z,3.85
2024-02-21T18:19:20.779Z,4.20
2024-02-21T18:21:47.640Z,4.15
2024-02-21T18:24:14.452Z,4.07
2024-02-21T18:26:41.645Z,4.38
2024-02-21T18:29:10.351Z,3.97
2024-02-21T18:31:39.013Z,3.85
2024-02-21T18:34:05.840Z,3.30
2024-02-21T18:36:32.576Z,3.47
2024-02-21T18:38:59.215Z,4.28
2024-02-21T18:41:27.760Z,3.58
2024-02-21T18:43:55.495Z,4.13
2024-02-21T18:46:22.422Z,3.42
2024-02-21T18:48:49.043Z,3.42
2024-02-21T18:51:17.283Z,4.00
2024-02-21T18:53:44.056Z,3.25
2024-02-21T18:56:11.841Z,3.97
2024-02-21T18:58:38.493Z,2.97
2024-02-21T19:01:05.269Z,3.70
2024-02-21T19:03:31.906Z,3.22
2024-02-21T19:05:58.674Z,4.65
2024-02-21T19:08:25.376Z,3.55
2024-02-21T19:10:52.068Z,3.72
2024-02-21T19:13:21.389Z,4.15
2024-02-21T19:15:48.160Z,2.92
2024-02-21T19:18:14.872Z,3.55
2024-02-21T19:20:41.607Z,4.00
2024-02-21T19:23:09.301Z,3.78
2024-02-21T19:25:36.237Z,3.40
2024-02-21T19:28:02.898Z,3.75
2024-02-21T19:30:29.730Z,3.45
2024-02-21T19:32:56.461Z,3.55
2024-02-21T19:35:23.521Z,4.53
2024-02-21T19:37:50.509Z,3.95
2024-02-21T19:40:17.664Z,3.90
2024-02-21T19:42:45.264Z,3.80
2024-02-21T19:45:12.102Z,3.53
2024-02-21T19:47:38.836Z,4.07
2024-02-21T19:50:06.135Z,3.75
2024-02-21T19:52:32.867Z,4.55
2024-02-21T19:55:00.046Z,3.53
2024-02-21T19:57:26.886Z,3.33
2024-02-21T19:59:54.548Z,3.38
2024-02-21T20:02:21.168Z,3.90
2024-02-21T20:04:48.562Z,4.07
2024-02-21T20:07:15.275Z,4.55
2024-02-21T20:09:42.732Z,3.40
2024-02-21T20:12:09.584Z,3.88
2024-02-21T20:14:36.269Z,3.72
2024-02-21T20:17:03.039Z,3.63
2024-02-21T20:19:29.725Z,3.63
2024-02-21T20:21:56.396Z,4.18
2024-02-21T20:24:32.807Z,4.68
2024-02-21T20:27:06.881Z,3.97
2024-02-21T20:29:33.593Z,3.72
2024-02-21T20:32:00.801Z,4.60
2024-02-21T20:34:31.788Z,5.38
2024-02-21T20:36:58.895Z,3.90
2024-02-21T20:39:26.180Z,4.65
2024-02-21T20:41:52.866Z,4.32
2024-02-21T20:44:19.586Z,4.13
2024-02-21T20:46:46.250Z,3.85
2024-02-21T20:49:12.921Z,4.25
2024-02-21T20:51:39.639Z,3.90
2024-02-21T20:54:06.251Z,4.22
2024-02-21T20:56:32.868Z,5.15
2024-02-21T20:58:59.464Z,4.45
2024-02-21T21:01:26.122Z,4.20
2024-02-21T21:03:52.859Z,3.88
2024-02-21T21:06:20.009Z,4.25
2024-02-21T21:08:46.912Z,5.20
2024-02-21T21:11:13.732Z,3.67
2024-02-21T21:13:40.480Z,4.15
2024-02-21T21:16:07.696Z,4.50
2024-02-21T21:18:34.523Z,4.20
2024-02-21T21:21:02.265Z,4.53
2024-02-21T21:23:29.255Z,4.97
2024-02-21T21:25:56.345Z,4.28
2024-02-21T21:28:23.224Z,4.50
2024-02-21T21:30:50.959Z,3.78
2024-02-21T21:33:19.139Z,3.70
2024-02-21T21:35:45.975Z,4.22
2024-02-21T21:38:14.575Z,4.07
2024-02-21T21:40:44.235Z,3.70
2024-02-21T21:43:11.042Z,4.32
2024-02-21T21:45:37.639Z,4.10
2024-02-21T21:48:05.707Z,4.30
2024-02-21T21:50:32.658Z,4.28
2024-02-21T21:52:59.425Z,3.80
2024-02-21T21:55:26.246Z,3.65
2024-02-21T21:57:53.247Z,4.15
2024-02-21T22:00:20.981Z,3.60
2024-02-21T22:02:48.958Z,3.65
2024-02-21T22:05:16.630Z,3.78
2024-02-21T22:07:44.245Z,3.95
2024-02-21T22:10:11.145Z,3.83
2024-02-21T22:12:37.798Z,3.42
2024-02-21T22:15:06.415Z,3.78
2024-02-21T22:17:34.105Z,3.92
2024-02-21T22:20:01.100Z,3.38
2024-02-21T22:22:28.027Z,3.72
2024-02-21T22:24:54.837Z,4.32
2024-02-21T22:27:21.542Z,4.30
2024-02-21T22:29:48.327Z,3.88
2024-02-21T22:32:15.018Z,3.60
2024-02-21T22:34:41.779Z,4.57
2024-02-21T22:37:08.589Z,3.70
2024-02-21T22:39:35.389Z,3.25
2024-02-21T22:42:02.610Z,3.20
2024-02-21T22:44:29.457Z,4.05
2024-02-21T22:46:57.768Z,3.58
2024-02-21T22:49:25.137Z,3.38
2024-02-21T22:51:52.084Z,4.13
2024-02-21T22:54:19.896Z,4.03
2024-02-21T22:56:46.813Z,4.20
2024-02-21T22:59:13.796Z,3.78
2024-02-21T23:01:40.608Z,3.72
2024-02-21T23:04:07.654Z,4.63
2024-02-21T23:06:34.700Z,4.18
2024-02-21T23:09:03.813Z,4.15
2024-02-21T23:11:31.292Z,4.93
2024-02-21T23:13:57.980Z,3.95
2024-02-21T23:16:24.580Z,3.33
2024-02-21T23:18:52.667Z,3.88
2024-02-21T23:21:19.366Z,3.72
2024-02-21T23:23:45.997Z,4.18
2024-02-21T23:26:12.676Z,4.63
2024-02-21T23:28:44.139Z,4.10
2024-02-21T23:31:14.166Z,4.57
2024-02-21T23:33:40.787Z,4.43
2024-02-21T23:36:08.075Z,4.63
2024-02-21T23:38:34.786Z,3.55
2024-02-21T23:41:01.492Z,4.25
2024-02-21T23:43:31.261Z,4.35
2024-02-21T23:45:57.929Z,4.55
2024-02-21T23:48:24.520Z,4.15
2024-02-21T23:50:51.151Z,4.13
2024-02-21T23:53:17.833Z,3.72
2024-02-21T23:55:44.612Z,3.95
2024-02-21T23:58:11.228Z,4.15
